Time,TemperatureF,DewpointF,PressureIn,WindDirection,WindDirectionDegrees,WindSpeedMPH,WindSpeedGustMPH,Humidity,HourlyPrecipIn,Conditions,Clouds,dailyrainin,SoftwareType,DateUTC
2013-05-29 09:37:00,64.0,55.5,29.60,SE,135,7.3,7.3,74,0.00,,,0.00,WUHU216HW,2013-05-29 07:37:00,
2013-05-29 09:42:00,65.1,56.6,29.60,ESE,113,0.0,7.3,74,0.00,,,0.00,WUHU216HW,2013-05-29 07:42:00,
2013-05-29 09:47:00,65.4,56.5,29.60,East,90,0.0,6.4,73,0.00,,,0.00,WUHU216HW,2013-05-29 07:47:00,
2013-05-29 09:52:00,65.6,55.6,29.60,ESE,113,0.0,6.4,70,0.00,,,0.00,WUHU216HW,2013-05-29 07:52:00,
2013-05-29 09:57:00,66.2,56.4,29.61,East,90,6.2,6.2,71,0.00,,,0.00,WUHU216HW,2013-05-29 07:57:00,
2013-05-29 10:02:00,66.9,57.2,29.62,ENE,68,2.2,7.1,71,0.00,,,0.00,WUHU216HW,2013-05-29 08:02:00,
2013-05-29 10:07:00,66.7,55.8,29.63,ENE,68,4.4,7.1,68,0.00,,,0.00,WUHU216HW,2013-05-29 08:07:00,
2013-05-29 10:12:00,66.0,55.5,29.63,East,90,3.1,4.9,69,0.00,,,0.00,WUHU216HW,2013-05-29 08:12:00,
2013-05-29 10:17:00,66.5,56.0,29.63,ESE,113,0.8,4.6,69,0.00,,,0.00,WUHU216HW,2013-05-29 08:17:00,
2013-05-29 10:22:00,66.7,55.8,29.63,ENE,68,0.0,4.6,68,0.00,,,0.00,WUHU216HW,2013-05-29 08:22:00,
2013-05-29 14:20:00,75.5,60.2,29.56,ESE,113,3.8,3.8,59,0.00,,,0.00,WUHU216HW,2013-05-29 12:20:00,
2013-05-29 14:25:00,76.1,60.2,29.55,ESE,113,7.8,7.8,58,0.00,,,0.00,WUHU216HW,2013-05-29 12:25:00,
2013-05-29 14:30:00,75.9,59.0,29.56,NNE,23,1.5,7.8,56,0.00,,,0.00,WUHU216HW,2013-05-29 12:30:00,
2013-05-29 14:35:00,74.4,57.7,29.55,NW,315,0.0,3.1,56,0.00,,,0.00,WUHU216HW,2013-05-29 12:35:00,
2013-05-29 14:40:00,74.3,58.0,29.56,ENE,68,0.0,4.4,57,0.00,,,0.00,WUHU216HW,2013-05-29 12:40:00,
2013-05-29 14:45:00,74.8,59.0,29.57,ESE,113,8.2,8.2,58,0.00,,,0.00,WUHU216HW,2013-05-29 12:45:00,
2013-05-29 14:50:00,75.3,59.5,29.57,ENE,68,4.9,8.2,58,0.00,,,0.00,WUHU216HW,2013-05-29 12:50:00,
2013-05-29 14:55:00,76.2,59.3,29.57,East,90,4.2,4.9,56,0.00,,,0.00,WUHU216HW,2013-05-29 12:55:00,
2013-05-29 15:00:00,75.9,57.5,29.58,NNW,338,0.0,6.4,53,0.00,,,0.00,WUHU216HW,2013-05-29 13:00:00,
2013-05-29 15:05:00,75.7,58.4,29.58,NE,45,0.0,6.4,55,0.00,,,0.00,WUHU216HW,2013-05-29 13:05:00,
2013-05-29 15:10:00,75.0,57.2,29.59,SE,135,0.0,5.1,54,0.00,,,0.00,WUHU216HW,2013-05-29 13:10:00,
2013-05-29 15:15:00,75.0,57.7,29.60,NE,45,6.7,6.7,55,0.00,,,0.00,WUHU216HW,2013-05-29 13:15:00,
2013-05-29 15:20:00,75.3,58.5,29.60,ENE,68,0.8,8.7,56,0.00,,,0.00,WUHU216HW,2013-05-29 13:20:00,
2013-05-29 15:25:00,76.8,59.8,29.60,NNE,23,0.0,8.9,56,0.00,,,0.00,WUHU216HW,2013-05-29 13:25:00,
2013-05-29 16:47:00,75.0,58.2,29.56,NW,315,0.0,0.0,56,0.00,,,0.00,WUHU216HW,2013-05-29 14:47:00,
2013-05-29 16:57:00,74.6,59.3,29.56,North,0,0.0,3.3,59,0.00,,,0.00,WUHU216HW,2013-05-29 14:57:00,
2013-05-29 17:02:00,74.8,59.5,29.56,NE,45,0.0,0.0,59,0.00,,,0.00,WUHU216HW,2013-05-29 15:02:00,
2013-05-29 17:07:00,74.4,58.2,29.56,ESE,113,0.0,6.4,57,0.00,,,0.00,WUHU216HW,2013-05-29 15:07:00,
2013-05-29 17:12:00,74.1,58.3,29.57,East,90,0.0,6.4,58,0.00,,,0.00,WUHU216HW,2013-05-29 15:12:00,
2013-05-29 17:17:00,73.5,58.3,29.57,ESE,113,0.0,4.6,59,0.00,,,0.00,WUHU216HW,2013-05-29 15:17:00,
2013-05-29 17:22:00,73.2,58.9,29.57,NNE,23,0.0,4.6,61,0.00,,,0.00,WUHU216HW,2013-05-29 15:22:00,
2013-05-29 17:27:00,73.2,58.9,29.57,ESE,113,0.0,2.2,61,0.00,,,0.00,WUHU216HW,2013-05-29 15:27:00,
2013-05-29 17:32:00,74.1,60.2,29.58,East,90,0.0,2.9,62,0.00,,,0.00,WUHU216HW,2013-05-29 15:32:00,
2013-05-29 20:48:00,62.4,55.0,29.52,NNW,338,0.0,0.0,77,0.00,,,0.00,WUHU216HW,2013-05-29 18:48:00,
2013-05-29 20:58:00,62.6,55.2,29.53,NW,315,0.0,0.0,77,0.00,,,0.00,WUHU216HW,2013-05-29 18:58:00,
2013-05-29 21:03:00,62.4,55.0,29.55,NNW,338,0.0,0.0,77,0.00,,,0.00,WUHU216HW,2013-05-29 19:03:00,